Time;durP1;ratioP1;P1;durP2;ratioP2;P2;SDS_P1;SDS_P2;PMS_P1;PMS_P2;Temp;Humidity;BMP_temperature;BMP_pressure;BME280_temperature;BME280_humidity;BME280_pressure;Samples;Min_cycle;Max_cycle;Signal;HPM_P1;HPM_P2
2021/10/04 00:00:14;;;;;;;2.28;0.40;;;;;;;12.71;98.52;98463.38;5069205;28;20058;-67
2021/10/04 00:02:39;;;;;;;0.50;0.38;;;;;;;12.69;98.11;98465.19;5074059;28;20024;-67
2021/10/04 00:05:05;;;;;;;1.95;0.50;;;;;;;12.69;97.74;98474.91;5080260;28;20039;-67
2021/10/04 00:07:31;;;;;;;1.00;0.40;;;;;;;12.74;97.92;98479.16;5073548;28;20312;-67
2021/10/04 00:09:56;;;;;;;1.13;0.40;;;;;;;12.65;97.98;98474.13;5076493;28;20016;-67
2021/10/04 00:12:22;;;;;;;3.10;0.50;;;;;;;12.63;98.36;98475.09;5078897;28;20024;-67
2021/10/04 00:14:47;;;;;;;1.58;0.40;;;;;;;12.64;98.36;98468.91;5079714;28;20028;-67
2021/10/04 00:17:13;;;;;;;3.40;0.55;;;;;;;12.60;98.25;98465.47;5078657;28;20095;-67
2021/10/04 00:19:38;;;;;;;2.67;0.70;;;;;;;12.54;97.79;98452.47;5076999;28;20260;-67
2021/10/04 00:22:04;;;;;;;1.15;0.70;;;;;;;12.45;98.04;98454.50;5071337;28;20020;-67
2021/10/04 00:24:30;;;;;;;0.40;0.40;;;;;;;12.45;98.26;98460.66;5072331;28;20040;-67
2021/10/04 00:26:55;;;;;;;2.20;0.68;;;;;;;12.53;98.53;98450.72;5070311;28;20268;-67
2021/10/04 00:29:21;;;;;;;1.08;0.60;;;;;;;12.56;98.08;98453.28;5070908;28;20027;-69
2021/10/04 00:31:48;;;;;;;0.57;0.50;;;;;;;12.48;98.10;98451.78;5073025;28;20099;-68
2021/10/04 00:34:13;;;;;;;1.17;0.50;;;;;;;12.52;98.65;98445.50;5073955;28;20096;-67
2021/10/04 00:36:39;;;;;;;0.93;0.80;;;;;;;12.52;98.53;98446.38;5073031;28;20027;-67
2021/10/04 00:39:05;;;;;;;1.85;0.50;;;;;;;12.53;98.52;98442.81;5079748;28;20027;-67
2021/10/04 00:41:32;;;;;;;0.95;0.88;;;;;;;12.51;98.59;98455.22;5069278;28;20032;-67
2021/10/04 00:43:58;;;;;;;0.68;0.57;;;;;;;12.46;99.13;98449.19;5077848;28;20013;-67
2021/10/04 00:46:27;;;;;;;1.52;0.88;;;;;;;12.47;99.17;98458.00;5079710;28;20276;-67
2021/10/04 00:48:53;;;;;;;1.27;0.65;;;;;;;12.53;99.60;98463.94;5077497;28;20035;-67
2021/10/04 00:51:20;;;;;;;1.77;0.80;;;;;;;12.59;98.97;98458.47;5069903;28;20048;-67
2021/10/04 00:53:51;;;;;;;1.05;0.57;;;;;;;12.58;98.19;98477.88;5083202;28;20212;-67
2021/10/04 00:56:17;;;;;;;2.42;0.70;;;;;;;12.55;97.86;98472.69;5061089;28;20028;-67
2021/10/04 00:58:43;;;;;;;1.15;0.68;;;;;;;12.53;98.75;98479.78;5076663;28;20319;-67
2021/10/04 01:01:09;;;;;;;0.80;0.57;;;;;;;12.59;98.29;98492.78;5071847;28;20028;-67
2021/10/04 01:03:35;;;;;;;0.65;0.60;;;;;;;12.59;98.06;98489.28;5067382;28;20033;-67
2021/10/04 01:06:01;;;;;;;3.67;0.85;;;;;;;12.56;97.84;98490.25;5082006;28;20032;-67
2021/10/04 01:08:26;;;;;;;1.60;0.70;;;;;;;12.53;98.13;98490.34;5082449;28;20028;-67
2021/10/04 01:10:52;;;;;;;1.92;0.80;;;;;;;12.58;98.32;98490.19;5080502;28;20016;-67
2021/10/04 01:13:18;;;;;;;2.22;0.70;;;;;;;12.59;97.84;98479.59;5070076;28;20028;-67
2021/10/04 01:15:43;;;;;;;1.17;0.90;;;;;;;12.59;97.87;98479.59;5069783;28;20115;-67
2021/10/04 01:18:08;;;;;;;3.95;1.23;;;;;;;12.58;97.93;98483.16;5068589;28;20020;-67
2021/10/04 01:20:34;;;;;;;2.20;1.00;;;;;;;12.62;97.68;98482.16;5077740;28;20032;-67
2021/10/04 01:23:00;;;;;;;2.83;1.10;;;;;;;12.55;97.66;98482.38;5074274;28;20016;-67
2021/10/04 01:25:26;;;;;;;1.92;0.73;;;;;;;12.57;98.24;98486.69;5074312;28;20220;-67
2021/10/04 01:27:52;;;;;;;4.65;1.13;;;;;;;12.55;97.93;98480.59;5075360;28;20029;-67
2021/10/04 01:30:22;;;;;;;3.22;0.90;;;;;;;12.53;97.40;98473.66;5076603;28;20055;-67
2021/10/04 01:32:49;;;;;;;4.13;1.20;;;;;;;12.49;98.63;98470.22;5076172;28;20031;-67
2021/10/04 01:35:14;;;;;;;0.60;0.60;;;;;;;12.51;98.65;98470.19;5072196;28;20304;-67
2021/10/04 01:37:40;;;;;;;1.52;0.80;;;;;;;12.53;98.25;98479.78;5083203;28;20045;-67
2021/10/04 01:40:07;;;;;;;1.75;1.00;;;;;;;12.52;97.96;98478.06;5069912;28;20020;-67
2021/10/04 01:42:33;;;;;;;2.60;1.67;;;;;;;12.57;97.74;98478.75;5076720;28;20013;-67
2021/10/04 01:44:59;;;;;;;1.50;1.00;;;;;;;12.52;97.98;98472.78;5065200;28;20028;-67
2021/10/04 01:47:24;;;;;;;2.75;1.05;;;;;;;12.52;97.96;98469.25;5065683;28;20024;-67
2021/10/04 01:49:50;;;;;;;1.27;0.82;;;;;;;12.56;97.82;98479.69;5064485;28;20052;-67
2021/10/04 01:52:15;;;;;;;2.08;1.00;;;;;;;12.47;97.42;98479.94;5065512;28;20076;-67
2021/10/04 01:54:41;;;;;;;2.22;1.10;;;;;;;12.45;97.88;98479.16;5066953;28;20013;-67
2021/10/04 01:57:07;;;;;;;2.88;1.08;;;;;;;12.41;98.19;98474.00;5080096;28;20016;-67
2021/10/04 01:59:33;;;;;;;2.47;1.10;;;;;;;12.36;98.51;98470.63;5067778;28;20039;-67
2021/10/04 02:01:58;;;;;;;1.55;0.93;;;;;;;12.32;98.26;98472.50;5074548;28;20299;-67
2021/10/04 02:04:24;;;;;;;1.45;1.05;;;;;;;12.37;98.19;98462.66;5080217;28;20038;-67
2021/10/04 02:06:51;;;;;;;1.40;1.00;;;;;;;12.33;97.26;98449.59;5076723;28;20063;-67
2021/10/04 02:09:17;;;;;;;1.42;0.90;;;;;;;12.36;97.83;98453.03;5069702;28;20028;-67
2021/10/04 02:11:43;;;;;;;3.88;1.00;;;;;;;12.37;97.79;98462.66;5081531;28;20032;-67
2021/10/04 02:14:09;;;;;;;5.82;1.20;;;;;;;12.37;98.25;98462.66;5078394;28;20025;-67
2021/10/04 02:16:34;;;;;;;1.70;0.82;;;;;;;12.35;97.78;98464.50;5077387;28;20112;-67
2021/10/04 02:18:59;;;;;;;2.38;0.98;;;;;;;12.37;98.02;98469.72;5074991;28;20268;-67
2021/10/04 02:21:25;;;;;;;1.73;0.90;;;;;;;12.35;98.19;98468.91;5065497;28;20021;-67
2021/10/04 02:23:50;;;;;;;1.75;1.08;;;;;;;12.36;98.08;98470.63;5065327;28;20025;-67
2021/10/04 02:26:16;;;;;;;3.70;0.90;;;;;;;12.42;97.76;98471.31;5068415;28;20189;-67
2021/10/04 02:28:41;;;;;;;2.67;0.70;;;;;;;12.39;98.00;98466.13;5079115;28;20029;-67
2021/10/04 02:31:06;;;;;;;4.60;0.75;;;;;;;12.34;97.53;98465.38;5067232;28;20024;-67
2021/10/04 02:33:32;;;;;;;3.90;0.85;;;;;;;12.23;97.73;98453.41;5076460;28;20021;-67
2021/10/04 02:35:57;;;;;;;2.85;0.93;;;;;;;12.23;98.56;98456.94;5079007;28;20017;-67
2021/10/04 02:38:23;;;;;;;2.47;0.70;;;;;;;12.27;98.33;98465.59;5071292;28;20020;-67
2021/10/04 02:40:50;;;;;;;3.00;0.70;;;;;;;12.20;98.47;98477.25;5080035;28;20044;-67
2021/10/04 02:43:18;;;;;;;1.98;0.82;;;;;;;12.22;98.72;98484.19;5068264;28;20185;-67
2021/10/04 02:45:48;;;;;;;0.80;0.60;;;;;;;12.22;98.13;98478.06;5081146;28;20369;-67
2021/10/04 02:48:14;;;;;;;5.65;0.70;;;;;;;12.27;98.38;98495.50;5077824;28;20318;-67
2021/10/04 02:50:40;;;;;;;7.78;0.50;;;;;;;12.19;97.97;98497.50;5070164;28;20044;-67
2021/10/04 02:53:06;;;;;;;0.32;0.32;;;;;;;12.18;98.13;98497.56;5080925;28;20025;-67
2021/10/04 02:55:31;;;;;;;3.72;0.70;;;;;;;12.22;98.04;98504.47;5069104;28;20023;-67
2021/10/04 02:57:57;;;;;;;2.17;1.08;;;;;;;12.17;98.03;98506.34;5076700;28;20021;-67
2021/10/04 03:00:23;;;;;;;0.73;0.57;;;;;;;12.22;98.30;98505.31;5066670;28;20024;-67
2021/10/04 03:02:48;;;;;;;1.17;0.40;;;;;;;12.21;98.53;98500.94;5074424;28;20048;-67
2021/10/04 03:05:14;;;;;;;1.13;0.50;;;;;;;12.23;98.01;98506.19;5070982;28;20052;-67
2021/10/04 03:07:39;;;;;;;7.10;0.85;;;;;;;12.28;98.01;98499.03;5079303;28;20320;-67
2021/10/04 03:10:05;;;;;;;0.50;0.50;;;;;;;12.28;98.23;98505.13;5070019;28;20240;-67
2021/10/04 03:12:31;;;;;;;1.63;0.50;;;;;;;12.24;98.38;98503.50;5063377;28;20398;-67
2021/10/04 03:14:58;;;;;;;1.45;0.43;;;;;;;12.28;98.38;98494.59;5063401;28;20054;-67
2021/10/04 03:17:23;;;;;;;0.65;0.57;;;;;;;12.30;98.13;98500.69;5066506;28;20024;-67
2021/10/04 03:19:48;;;;;;;0.90;0.60;;;;;;;12.31;98.09;98499.78;5075279;28;20283;-67
2021/10/04 03:22:14;;;;;;;0.77;0.50;;;;;;;12.33;98.30;98484.78;5077120;28;20016;-67
2021/10/04 03:24:39;;;;;;;0.90;0.50;;;;;;;12.34;98.32;98489.13;5072531;28;20032;-67
2021/10/04 03:27:05;;;;;;;2.90;0.80;;;;;;;12.31;98.50;98499.78;5079198;28;20021;-67
2021/10/04 03:29:30;;;;;;;3.28;0.88;;;;;;;12.26;98.72;98493.78;5076673;28;20028;-67
2021/10/04 03:31:56;;;;;;;3.08;0.70;;;;;;;12.33;98.88;98503.25;5071686;28;20048;-67
2021/10/04 03:34:21;;;;;;;1.20;0.82;;;;;;;12.36;98.69;98492.59;5079262;28;20078;-67
2021/10/04 03:36:47;;;;;;;1.30;0.90;;;;;;;12.41;98.33;98495.97;5065900;28;20025;-67
2021/10/04 03:39:12;;;;;;;2.33;1.00;;;;;;;12.40;98.15;98499.53;5074333;28;20020;-67
2021/10/04 03:41:38;;;;;;;2.88;1.00;;;;;;;12.30;98.11;98503.34;5082252;28;20028;-67
2021/10/04 03:44:04;;;;;;;1.67;1.05;;;;;;;12.27;98.21;98508.69;5082722;28;20270;-67
2021/10/04 03:46:30;;;;;;;2.00;1.08;;;;;;;12.23;98.88;98506.19;5069931;28;20248;-67
2021/10/04 03:48:56;;;;;;;2.40;1.50;;;;;;;12.17;98.90;98507.22;5071291;28;20028;-67
2021/10/04 03:51:22;;;;;;;1.83;1.25;;;;;;;12.22;98.69;98494.75;5068241;28;20030;-67
2021/10/04 03:53:47;;;;;;;1.20;1.00;;;;;;;12.30;98.75;98503.34;5071507;28;20091;-67
2021/10/04 03:56:13;;;;;;;1.92;0.88;;;;;;;12.32;98.93;98506.81;5068794;28;20084;-67
2021/10/04 03:58:39;;;;;;;1.90;1.40;;;;;;;12.27;99.14;98511.34;5062314;28;20088;-67
2021/10/04 04:01:04;;;;;;;2.40;1.60;;;;;;;12.27;98.94;98519.25;5070107;28;20019;-68
2021/10/04 04:03:30;;;;;;;3.65;1.50;;;;;;;12.27;99.15;98518.38;5076417;28;20040;-67
2021/10/04 04:05:56;;;;;;;2.88;1.70;;;;;;;12.26;99.16;98533.38;5075215;28;20025;-67
2021/10/04 04:08:21;;;;;;;6.35;1.90;;;;;;;12.25;99.20;98536.88;5076137;28;20044;-67
2021/10/04 04:10:47;;;;;;;4.85;3.08;;;;;;;12.29;99.10;98535.91;5075441;28;20062;-67
2021/10/04 04:13:12;;;;;;;4.45;2.83;;;;;;;12.32;98.94;98537.59;5081949;28;20363;-67
2021/10/04 04:15:38;;;;;;;3.83;2.50;;;;;;;12.35;98.81;98546.31;5068407;28;20040;-67
2021/10/04 04:18:04;;;;;;;7.25;2.83;;;;;;;12.33;99.16;98541.97;5067367;28;20020;-67
2021/10/04 04:20:30;;;;;;;4.78;3.15;;;;;;;12.38;98.89;98553.28;5067307;28;20047;-67
2021/10/04 04:22:55;;;;;;;4.57;3.05;;;;;;;12.38;98.79;98554.16;5067323;28;20311;-67
2021/10/04 04:25:21;;;;;;;6.63;3.17;;;;;;;12.42;98.71;98555.78;5067260;28;20023;-67
2021/10/04 04:27:47;;;;;;;4.35;2.80;;;;;;;12.42;98.67;98555.78;5067139;28;20091;-67
2021/10/04 04:30:14;;;;;;;5.38;3.33;;;;;;;12.37;99.12;98556.81;5067170;28;20017;-67
2021/10/04 04:32:40;;;;;;;4.28;3.03;;;;;;;12.41;99.26;98558.47;5067034;28;20324;-67
2021/10/04 04:35:06;;;;;;;6.30;3.20;;;;;;;12.45;99.15;98566.25;5067095;28;20025;-67
2021/10/04 04:37:39;;;;;;;6.50;3.65;;;;;;;12.44;99.67;98575.06;5065860;28;20251;-67
2021/10/04 04:40:08;;;;;;;5.45;3.22;;;;;;;12.48;99.20;98576.75;5065823;28;20028;-67
2021/10/04 04:42:33;;;;;;;5.95;3.30;;;;;;;12.52;99.41;98580.13;5066852;28;20055;-67
2021/10/04 04:44:59;;;;;;;5.68;3.40;;;;;;;12.52;98.72;98588.06;5066892;28;20217;-67
2021/10/04 04:47:25;;;;;;;5.63;3.60;;;;;;;12.50;99.04;98590.75;5066891;28;20059;-67
2021/10/04 04:49:51;;;;;;;8.35;4.00;;;;;;;12.51;99.00;98597.78;5066808;28;20418;-67
2021/10/04 04:52:16;;;;;;;7.60;3.90;;;;;;;12.53;98.64;98595.09;5066664;28;20017;-67
2021/10/04 04:54:41;;;;;;;7.90;4.07;;;;;;;12.50;98.98;98603.94;5066686;28;20067;-67
2021/10/04 04:57:07;;;;;;;7.43;4.60;;;;;;;12.46;98.87;98599.66;5066644;28;20032;-67
2021/10/04 04:59:33;;;;;;;7.07;4.47;;;;;;;12.46;99.20;98593.50;5066590;28;20024;-67
2021/10/04 05:01:58;;;;;;;9.60;4.60;;;;;;;12.47;99.49;98600.53;5066585;28;20215;-67
2021/10/04 05:04:24;;;;;;;7.72;4.43;;;;;;;12.54;99.04;98600.31;5066353;28;20103;-67
2021/10/04 05:06:50;;;;;;;6.10;3.60;;;;;;;12.42;98.70;98611.22;5066494;28;20031;-67
2021/10/04 05:09:15;;;;;;;7.68;3.75;;;;;;;12.49;99.20;98609.25;5066434;28;20025;-67
2021/10/04 05:11:41;;;;;;;10.38;4.40;;;;;;;12.41;99.46;98627.09;5066405;28;20135;-67
2021/10/04 05:14:06;;;;;;;6.80;4.30;;;;;;;12.35;99.55;98628.13;5065109;28;20088;-67
2021/10/04 05:16:32;;;;;;;7.65;3.63;;;;;;;12.40;99.39;98628.84;5066355;28;20311;-67
2021/10/04 05:18:59;;;;;;;7.20;4.07;;;;;;;12.35;99.83;98638.69;5065466;28;20056;-67
2021/10/04 05:21:25;;;;;;;7.65;3.85;;;;;;;12.47;99.10;98640.13;5065029;28;20024;-67
2021/10/04 05:23:50;;;;;;;5.25;3.53;;;;;;;12.46;98.94;98631.34;5066176;28;20100;-67
2021/10/04 05:26:16;;;;;;;5.00;3.65;;;;;;;12.42;99.13;98634.97;5066122;28;20315;-67
2021/10/04 05:28:41;;;;;;;6.78;3.72;;;;;;;12.46;98.68;98641.91;5066053;28;20048;-67
2021/10/04 05:31:07;;;;;;;6.10;3.92;;;;;;;12.42;99.00;98639.38;5064865;28;20032;-67
2021/10/04 05:33:32;;;;;;;6.20;3.53;;;;;;;12.36;99.03;98635.13;5065904;28;20071;-67
2021/10/04 05:35:57;;;;;;;5.43;3.17;;;;;;;12.37;99.33;98626.28;5065944;28;20027;-67
2021/10/04 05:38:23;;;;;;;4.35;2.80;;;;;;;12.38;99.71;98633.34;5065896;28;20032;-67
2021/10/04 05:40:49;;;;;;;6.65;2.97;;;;;;;12.40;99.44;98627.97;5065923;28;20036;-67
2021/10/04 05:43:14;;;;;;;5.25;3.05;;;;;;;12.35;99.56;98649.25;5064682;28;20245;-67
2021/10/04 05:45:40;;;;;;;4.88;3.00;;;;;;;12.32;99.51;98654.59;5065747;28;20036;-67
2021/10/04 05:48:05;;;;;;;5.72;2.95;;;;;;;12.33;100.00;98656.31;5065706;28;20197;-67
2021/10/04 05:50:31;;;;;;;4.95;2.80;;;;;;;12.36;99.92;98666.81;5065685;28;20243;-67
2021/10/04 05:52:57;;;;;;;6.50;2.88;;;;;;;12.35;99.84;98678.28;5064384;28;20029;-67
2021/10/04 05:55:22;;;;;;;3.80;2.10;;;;;;;12.37;99.83;98679.09;5065564;28;20025;-67
2021/10/04 05:57:48;;;;;;;5.00;2.58;;;;;;;12.39;100.00;98672.00;5064420;28;20088;-67
2021/10/04 06:00:14;;;;;;;3.38;1.85;;;;;;;12.44;99.81;98670.09;5065463;28;20032;-67
2021/10/04 06:02:40;;;;;;;3.42;2.17;;;;;;;12.49;99.70;98667.34;5065425;28;20197;-67
2021/10/04 06:05:07;;;;;;;5.20;1.90;;;;;;;12.51;99.23;98653.22;5065175;28;20090;-67
2021/10/04 06:07:33;;;;;;;4.32;2.10;;;;;;;12.54;98.80;98661.06;5064206;28;20315;-67
2021/10/04 06:09:58;;;;;;;2.65;1.92;;;;;;;12.52;98.98;98677.81;5065296;28;20036;-67
2021/10/04 06:12:26;;;;;;;2.78;2.08;;;;;;;12.51;99.10;98665.53;5064012;28;20055;-67
2021/10/04 06:14:56;;;;;;;3.53;2.35;;;;;;;12.54;99.20;98682.19;5065180;28;20277;-67
2021/10/04 06:17:22;;;;;;;7.18;2.20;;;;;;;12.57;99.36;98682.06;5065152;28;20316;-67
2021/10/04 06:19:48;;;;;;;4.43;2.50;;;;;;;12.60;99.45;98678.50;5065108;28;20028;-67
2021/10/04 06:22:14;;;;;;;3.92;2.30;;;;;;;12.56;98.87;98668.94;5065055;28;20025;-67
2021/10/04 06:24:39;;;;;;;3.20;1.77;;;;;;;12.58;98.54;98665.34;5064996;28;20216;-67
2021/10/04 06:27:05;;;;;;;4.82;2.30;;;;;;;12.61;98.42;98662.63;5064932;28;20021;-67
2021/10/04 06:29:30;;;;;;;4.18;2.20;;;;;;;12.56;99.02;98658.38;5064715;28;20028;-67
2021/10/04 06:31:55;;;;;;;3.03;2.10;;;;;;;12.61;98.99;98673.19;5064870;28;20031;-67
2021/10/04 06:34:21;;;;;;;3.67;2.47;;;;;;;12.73;98.45;98680.78;5064725;28;20033;-67
2021/10/04 06:36:46;;;;;;;4.07;2.20;;;;;;;12.82;98.42;98688.41;5064777;28;20021;-67
2021/10/04 06:39:11;;;;;;;3.20;1.95;;;;;;;12.84;98.61;98694.53;5064713;28;20032;-67
2021/10/04 06:41:41;;;;;;;4.95;2.22;;;;;;;12.86;98.94;98700.66;5064662;28;20020;-67
2021/10/04 06:44:09;;;;;;;4.03;2.65;;;;;;;12.89;98.38;98703.22;5064644;28;20048;-67
2021/10/04 06:46:36;;;;;;;4.38;2.50;;;;;;;12.92;98.37;98705.75;5063410;28;20048;-67
2021/10/04 06:49:02;;;;;;;2.90;2.25;;;;;;;12.95;98.04;98721.50;5063377;28;20025;-67
2021/10/04 06:51:27;;;;;;;5.93;2.20;;;;;;;12.97;97.44;98727.63;5064510;28;20048;-67
2021/10/04 06:53:52;;;;;;;3.38;2.28;;;;;;;12.97;97.64;98725.00;5064411;28;20052;-67
2021/10/04 06:56:18;;;;;;;3.17;1.88;;;;;;;12.98;97.09;98720.59;5064432;28;20028;-67
2021/10/04 06:58:43;;;;;;;7.30;2.75;;;;;;;13.01;96.88;98742.53;5064402;28;20025;-67
2021/10/04 07:01:09;;;;;;;4.28;2.28;;;;;;;13.05;96.98;98730.09;5064363;28;20216;-67
2021/10/04 07:03:34;;;;;;;6.07;2.20;;;;;;;13.06;96.98;98729.19;5064076;28;20060;-67
2021/10/04 07:06:00;;;;;;;6.85;2.40;;;;;;;13.03;97.32;98740.72;5064346;28;20032;-67
2021/10/04 07:08:26;;;;;;;3.47;2.58;;;;;;;13.06;98.28;98741.56;5064271;28;20323;-67
2021/10/04 07:10:52;;;;;;;3.92;2.60;;;;;;;13.13;97.46;98754.53;5064186;28;20021;-67
2021/10/04 07:13:18;;;;;;;4.47;2.50;;;;;;;13.21;97.37;98757.84;5064071;28;20051;-67
2021/10/04 07:15:43;;;;;;;3.95;2.35;;;;;;;13.23;97.51;98771.03;5062972;28;20021;-67
2021/10/04 07:18:09;;;;;;;3.65;2.17;;;;;;;13.30;96.97;98764.66;5064063;28;20031;-67
2021/10/04 07:20:34;;;;;;;2.80;1.90;;;;;;;13.28;97.16;98766.44;5064051;28;20024;-67
2021/10/04 07:23:00;;;;;;;2.33;1.65;;;;;;;13.29;97.12;98763.75;5064075;28;20017;-67
2021/10/04 07:25:26;;;;;;;3.83;1.50;;;;;;;13.35;96.90;98757.47;5063986;28;20017;-67
2021/10/04 07:27:52;;;;;;;2.17;1.45;;;;;;;13.38;95.79;98757.38;5063946;28;20070;-67
2021/10/04 07:30:18;;;;;;;2.30;1.60;;;;;;;13.37;96.60;98760.91;5063922;28;20021;-67
2021/10/04 07:32:43;;;;;;;3.50;1.52;;;;;;;13.35;95.56;98758.31;5063819;28;20025;-67
2021/10/04 07:35:09;;;;;;;9.85;1.73;;;;;;;13.37;96.78;98755.63;5063871;28;20066;-67
2021/10/04 07:37:35;;;;;;;4.47;1.85;;;;;;;13.30;96.28;98748.78;5063860;28;20332;-67
2021/10/04 07:40:03;;;;;;;2.42;1.48;;;;;;;13.36;96.34;98754.78;5063817;28;20088;-67
2021/10/04 07:42:29;;;;;;;2.45;1.25;;;;;;;13.44;96.18;98736.91;5062092;28;20017;-67
2021/10/04 07:44:54;;;;;;;4.97;1.70;;;;;;;13.49;95.55;98747.34;5063766;28;20043;-67
2021/10/04 07:47:20;;;;;;;2.45;1.25;;;;;;;13.56;96.36;98749.78;5063775;28;20063;-67
2021/10/04 07:49:45;;;;;;;3.25;1.80;;;;;;;13.56;95.06;98747.13;5063729;28;20020;-67
2021/10/04 07:52:11;;;;;;;3.97;1.70;;;;;;;13.58;95.08;98744.44;5063629;28;20058;-67
2021/10/04 07:54:36;;;;;;;2.90;1.67;;;;;;;13.70;95.34;98754.66;5063699;28;20310;-67
2021/10/04 07:57:02;;;;;;;4.30;2.08;;;;;;;13.64;95.66;98760.13;5062503;28;20120;-67
2021/10/04 07:59:27;;;;;;;4.47;1.73;;;;;;;13.70;95.16;98749.38;5062460;28;20088;-67
2021/10/04 08:01:53;;;;;;;2.92;2.03;;;;;;;13.75;95.01;98758.91;5063634;28;20027;-67
2021/10/04 08:04:18;;;;;;;2.72;1.63;;;;;;;13.70;94.94;98755.50;5063323;28;20051;-67
2021/10/04 08:06:43;;;;;;;2.45;1.67;;;;;;;13.70;95.82;98759.94;5063588;28;20025;-67
2021/10/04 08:09:09;;;;;;;4.22;1.30;;;;;;;13.78;95.88;98768.50;5063543;28;20084;-67
2021/10/04 08:11:34;;;;;;;1.77;1.40;;;;;;;13.81;96.20;98760.47;5063505;28;20043;-67
2021/10/04 08:14:00;;;;;;;2.75;1.25;;;;;;;13.74;96.24;98766.88;5063404;28;20025;-67
2021/10/04 08:16:26;;;;;;;8.50;1.85;;;;;;;13.74;95.86;98761.59;5063475;28;20017;-67
2021/10/04 08:18:53;;;;;;;2.47;1.50;;;;;;;13.79;96.26;98767.63;5063463;28;20024;-67
2021/10/04 08:21:20;;;;;;;2.20;1.10;;;;;;;13.82;95.87;98770.13;5062270;28;20105;-67
2021/10/04 08:23:47;;;;;;;3.47;1.30;;;;;;;13.92;95.03;98766.34;5062249;28;20084;-67
2021/10/04 08:26:12;;;;;;;3.03;1.27;;;;;;;13.85;94.79;98764.75;5062245;28;20021;-67
2021/10/04 08:28:38;;;;;;;2.13;1.10;;;;;;;13.96;94.90;98767.97;5063232;28;20027;-67
2021/10/04 08:31:04;;;;;;;1.63;1.35;;;;;;;13.95;94.39;98766.25;5062193;28;20017;-67
2021/10/04 08:33:30;;;;;;;1.98;1.08;;;;;;;13.96;95.97;98784.72;5063260;28;20025;-67
2021/10/04 08:35:58;;;;;;;1.92;0.85;;;;;;;14.04;94.40;98790.63;5062194;28;20024;-67
2021/10/04 08:38:24;;;;;;;4.93;1.23;;;;;;;14.14;94.53;98789.44;5062154;28;20025;-67
2021/10/04 08:40:50;;;;;;;3.08;0.90;;;;;;;14.26;95.85;98791.72;5063291;28;20028;-67
2021/10/04 08:43:15;;;;;;;4.57;1.73;;;;;;;14.32;94.67;98790.66;5063249;28;20017;-67
2021/10/04 08:45:43;;;;;;;2.90;1.15;;;;;;;14.34;94.10;98796.78;5063250;28;20017;-67
2021/10/04 08:48:09;;;;;;;1.08;0.90;;;;;;;14.41;95.31;98808.91;5063221;28;20062;-67
2021/10/04 08:50:34;;;;;;;2.80;1.30;;;;;;;14.37;93.31;98807.28;5063206;28;20315;-67
2021/10/04 08:53:01;;;;;;;2.60;1.33;;;;;;;14.30;92.55;98795.16;5063164;28;20112;-67
2021/10/04 08:55:27;;;;;;;2.35;1.15;;;;;;;14.21;92.53;98800.72;5066773;28;20193;-67
2021/10/04 08:57:53;;;;;;;3.22;1.20;;;;;;;14.19;92.71;98792.81;5066687;28;20052;-67
2021/10/04 09:00:18;;;;;;;1.90;1.10;;;;;;;14.32;93.59;98798.59;5066642;28;20051;-67
2021/10/04 09:02:45;;;;;;;2.72;1.60;;;;;;;14.22;93.77;98797.13;5066558;28;20025;-67
2021/10/04 09:05:15;;;;;;;2.92;1.40;;;;;;;14.22;93.59;98797.13;5066331;28;20083;-67
2021/10/04 09:07:52;;;;;;;2.50;1.30;;;;;;;14.22;94.68;98791.84;5066439;28;20031;-67
2021/10/04 09:10:23;;;;;;;2.58;1.20;;;;;;;14.23;94.63;98794.47;5066467;28;20087;-67
2021/10/04 09:12:50;;;;;;;4.30;1.33;;;;;;;14.20;94.18;98801.59;5066399;28;20052;-67
2021/10/04 09:15:43;;;;;;;2.78;1.20;;;;;;;14.17;94.21;98804.34;5066365;28;20043;-68
2021/10/04 09:18:31;;;;;;;4.80;1.20;;;;;;;14.22;95.07;98805.94;5066078;28;20032;-67
2021/10/04 09:21:05;;;;;;;3.53;1.00;;;;;;;14.25;94.37;98802.38;5066294;28;20016;-67
2021/10/04 09:23:56;;;;;;;1.52;1.20;;;;;;;14.17;95.93;98799.03;5066194;28;20027;-67
2021/10/04 09:26:28;;;;;;;3.22;0.93;;;;;;;14.22;94.75;98800.66;5066192;28;20197;-67
2021/10/04 09:28:59;;;;;;;4.22;0.90;;;;;;;14.24;94.44;98800.66;5066133;28;20031;-67
2021/10/04 09:31:27;;;;;;;3.03;1.02;;;;;;;14.35;93.93;98803.81;5066032;28;20024;-67
2021/10/04 09:34:11;;;;;;;1.23;0.98;;;;;;;14.44;93.70;98800.88;5065986;28;20036;-67
2021/10/04 09:37:03;;;;;;;1.48;0.80;;;;;;;14.66;93.54;98801.91;5065952;28;20111;-67
2021/10/04 09:39:39;;;;;;;2.47;1.13;;;;;;;14.61;92.04;98795.88;5065662;28;20374;-67
2021/10/04 09:42:11;;;;;;;2.08;1.08;;;;;;;14.57;90.77;98799.56;5065827;28;20320;-67
2021/10/04 09:44:41;;;;;;;2.78;1.10;;;;;;;14.63;92.07;98799.34;5064644;28;20036;-67
2021/10/04 09:47:12;;;;;;;1.55;0.95;;;;;;;14.72;92.79;98794.59;5065788;28;20029;-67
2021/10/04 09:49:57;;;;;;;1.60;0.80;;;;;;;14.61;92.67;98790.59;5065770;28;20024;-67
2021/10/04 09:52:34;;;;;;;1.10;0.75;;;;;;;14.71;93.45;98782.28;5065626;28;20557;-67
2021/10/04 09:55:00;;;;;;;2.25;0.90;;;;;;;14.66;92.06;98778.06;5065611;28;20092;-67
2021/10/04 09:57:26;;;;;;;2.78;0.75;;;;;;;14.55;90.58;98774.88;5065645;28;20111;-67
2021/10/04 09:59:51;;;;;;;1.10;0.50;;;;;;;14.37;92.52;98780.81;5065522;28;20327;-67
2021/10/04 10:02:18;;;;;;;1.33;0.77;;;;;;;14.42;93.03;98787.69;5065469;28;20062;-67
2021/10/04 10:04:47;;;;;;;1.70;0.60;;;;;;;14.33;92.66;98790.63;5064777;28;20041;-67
2021/10/04 10:07:13;;;;;;;6.22;0.73;;;;;;;14.58;92.85;98793.34;5065340;28;20028;-67
2021/10/04 10:09:40;;;;;;;1.30;0.73;;;;;;;14.59;92.54;98801.22;5065314;28;20027;-67
2021/10/04 10:12:07;;;;;;;0.60;0.60;;;;;;;14.65;92.72;98805.50;5065203;28;20051;-67
2021/10/04 10:14:47;;;;;;;2.70;0.70;;;;;;;14.71;92.55;98797.31;5065215;28;20060;-67
2021/10/04 10:17:45;;;;;;;0.73;0.70;;;;;;;14.93;90.99;98803.63;5064030;28;20042;-67
2021/10/04 10:20:15;;;;;;;1.80;0.88;;;;;;;15.02;91.26;98793.59;5064932;28;20064;-67
2021/10/04 10:22:46;;;;;;;1.17;0.70;;;;;;;15.00;91.44;98802.53;5065105;28;20017;-67
2021/10/04 10:25:35;;;;;;;7.55;0.82;;;;;;;15.01;92.67;98812.19;5065013;28;20020;-67
2021/10/04 10:28:04;;;;;;;1.52;0.60;;;;;;;14.99;91.19;98809.59;5065034;28;20013;-67
2021/10/04 10:30:30;;;;;;;2.17;0.60;;;;;;;15.03;89.51;98794.47;5064937;28;20335;-67
2021/10/04 10:32:57;;;;;;;1.48;0.45;;;;;;;15.42;88.18;98803.69;5064788;28;20088;-67
2021/10/04 10:35:47;;;;;;;0.40;0.30;;;;;;;16.06;85.92;98787.09;5064844;28;20024;-67
2021/10/04 10:38:13;;;;;;;0.45;0.40;;;;;;;16.35;86.11;98778.84;5063663;28;20040;-67
2021/10/04 10:40:38;;;;;;;1.17;0.52;;;;;;;16.38;84.26;98784.03;5064763;28;20024;-67
2021/10/04 10:43:09;;;;;;;0.73;0.52;;;;;;;16.38;83.44;98799.09;5064746;28;20017;-67
2021/10/04 10:45:40;;;;;;;0.55;0.40;;;;;;;16.29;83.50;98803.00;5064681;28;20220;-67
2021/10/04 10:48:07;;;;;;;1.00;0.60;;;;;;;15.79;82.75;98798.75;5064639;28;20025;-67
2021/10/04 10:50:37;;;;;;;0.85;0.50;;;;;;;15.66;85.96;98802.78;5064564;28;20025;-67
2021/10/04 10:53:24;;;;;;;0.55;0.38;;;;;;;15.75;85.66;98809.56;5064519;28;20052;-67
2021/10/04 10:55:59;;;;;;;1.88;0.43;;;;;;;15.71;86.84;98800.84;5064209;28;20033;-67
2021/10/04 10:58:28;;;;;;;0.30;0.30;;;;;;;15.60;85.26;98787.09;5064526;28;20086;-67
2021/10/04 11:01:01;;;;;;;0.45;0.25;;;;;;;15.49;85.35;98789.28;5063224;28;20025;-67
2021/10/04 11:03:26;;;;;;;0.90;0.40;;;;;;;15.53;85.31;98785.59;5063028;28;20045;-67
2021/10/04 11:05:55;;;;;;;0.63;0.43;;;;;;;15.70;84.95;98783.19;5064322;28;20058;-67
2021/10/04 11:08:29;;;;;;;0.73;0.47;;;;;;;15.56;82.75;98785.47;5064858;28;20334;-68
2021/10/04 11:10:55;;;;;;;1.27;0.40;;;;;;;15.59;84.46;98788.03;5063082;28;20028;-68
2021/10/04 11:13:25;;;;;;;1.38;0.50;;;;;;;15.64;84.48;98783.41;5064093;28;20029;-68
2021/10/04 11:15:52;;;;;;;1.25;0.55;;;;;;;15.60;85.34;98786.25;5063526;28;20029;-68
2021/10/04 11:18:18;;;;;;;0.30;0.30;;;;;;;15.70;83.71;98792.94;5063994;28;20031;-68
2021/10/04 11:20:44;;;;;;;4.00;0.40;;;;;;;15.66;83.85;98797.47;5064081;28;20052;-68
2021/10/04 11:23:13;;;;;;;1.80;0.50;;;;;;;15.47;84.05;98796.41;5064026;28;20017;-68
2021/10/04 11:25:49;;;;;;;0.77;0.47;;;;;;;15.11;85.19;98793.28;5063997;28;20324;-68
2021/10/04 11:28:18;;;;;;;4.82;0.70;;;;;;;15.01;86.18;98804.25;5062873;28;20055;-68
2021/10/04 11:31:01;;;;;;;0.90;0.60;;;;;;;15.04;86.85;98798.84;5062805;28;20025;-68
2021/10/04 11:33:29;;;;;;;1.33;0.60;;;;;;;15.22;86.53;98797.34;5063832;28;20024;-68